createdAt,value
2018-02-22T00:01:18.904Z,44.40
2018-02-22T00:03:47.811Z,44.50
2018-02-22T00:06:16.123Z,44.70
2018-02-22T00:08:44.337Z,44.50
2018-02-22T00:11:12.582Z,44.70
2018-02-22T00:13:40.893Z,44.50
2018-02-22T00:16:09.146Z,44.60
2018-02-22T00:18:38.233Z,44.60
2018-02-22T00:21:07.390Z,44.70
2018-02-22T00:23:35.642Z,44.70
2018-02-22T00:26:03.929Z,44.50
2018-02-22T00:28:32.197Z,44.60
2018-02-22T00:31:00.450Z,44.70
2018-02-22T00:33:29.559Z,44.70
2018-02-22T00:35:57.811Z,44.90
2018-02-22T00:38:27.101Z,45.00
2018-02-22T00:40:55.367Z,45.00
2018-02-22T00:43:23.686Z,45.10
2018-02-22T00:45:52.770Z,45.10
2018-02-22T00:48:22.295Z,45.00
2018-02-22T00:50:50.546Z,45.10
2018-02-22T00:53:19.646Z,45.10
2018-02-22T00:55:48.768Z,45.20
2018-02-22T00:58:17.101Z,45.10
2018-02-22T01:00:45.312Z,45.20
2018-02-22T01:03:13.581Z,45.40
2018-02-22T01:05:41.834Z,45.10
2018-02-22T01:08:10.321Z,45.30
2018-02-22T01:10:39.505Z,45.30
2018-02-22T01:13:07.704Z,45.30
2018-02-22T01:15:36.058Z,45.10
2018-02-22T01:18:05.974Z,45.30
2018-02-22T01:20:34.172Z,45.10
2018-02-22T01:23:02.697Z,45.30
2018-02-22T01:25:30.976Z,45.30
2018-02-22T01:27:59.248Z,45.40
2018-02-22T01:30:28.129Z,45.40
2018-02-22T01:32:56.449Z,45.40
2018-02-22T01:35:24.689Z,45.40
2018-02-22T01:37:52.973Z,45.40
2018-02-22T01:40:21.254Z,45.30
2018-02-22T01:42:49.505Z,45.10
2018-02-22T01:45:17.764Z,45.30
2018-02-22T01:47:46.026Z,46.00
2018-02-22T01:50:14.294Z,45.20
2018-02-22T01:52:43.329Z,45.00
2018-02-22T01:55:11.564Z,45.10
2018-02-22T01:57:39.821Z,45.00
2018-02-22T02:00:09.889Z,45.10
2018-02-22T02:02:38.159Z,45.10
2018-02-22T02:05:06.426Z,45.00
2018-02-22T02:07:34.721Z,45.30
2018-02-22T02:10:03.005Z,45.20
2018-02-22T02:12:31.241Z,45.10
2018-02-22T02:15:00.353Z,45.40
2018-02-22T02:17:28.635Z,45.40
2018-02-22T02:19:56.872Z,45.30
2018-02-22T02:22:26.004Z,45.40
2018-02-22T02:24:54.285Z,45.50
2018-02-22T02:27:22.529Z,45.70
2018-02-22T02:29:51.618Z,45.40
2018-02-22T02:32:20.717Z,45.50
2018-02-22T02:34:49.766Z,46.10
2018-02-22T02:37:18.102Z,45.40
2018-02-22T02:39:47.207Z,45.60
2018-02-22T02:42:15.494Z,45.70
2018-02-22T02:44:43.781Z,45.70
2018-02-22T02:47:12.091Z,45.80
2018-02-22T02:49:40.587Z,46.10
2018-02-22T02:52:08.793Z,46.00
2018-02-22T02:54:37.068Z,46.30
2018-02-22T02:57:05.293Z,46.20
2018-02-22T02:59:37.410Z,46.50
2018-02-22T03:02:05.750Z,47.00
2018-02-22T03:04:34.136Z,46.30
2018-02-22T03:07:02.620Z,46.30
2018-02-22T03:09:31.644Z,46.40
2018-02-22T03:11:59.900Z,46.50
2018-02-22T03:14:28.279Z,46.40
2018-02-22T03:16:57.482Z,46.10
2018-02-22T03:19:25.782Z,46.20
2018-02-22T03:21:54.117Z,46.20
2018-02-22T03:24:22.514Z,46.10
2018-02-22T03:26:51.616Z,46.30
2018-02-22T03:29:19.890Z,46.10
2018-02-22T03:31:49.632Z,46.30
2018-02-22T03:34:17.921Z,46.00
2018-02-22T03:36:46.149Z,46.20
2018-02-22T03:39:14.648Z,46.20
2018-02-22T03:41:42.914Z,46.50
2018-02-22T03:44:11.263Z,46.40
2018-02-22T03:46:40.103Z,46.50
2018-02-22T03:49:08.367Z,46.60
2018-02-22T03:51:36.636Z,46.60
2018-02-22T03:54:04.883Z,46.80
2018-02-22T03:56:33.993Z,47.00
2018-02-22T03:59:03.959Z,47.00
2018-02-22T04:01:32.305Z,47.20
2018-02-22T04:04:00.680Z,46.90
2018-02-22T04:06:28.936Z,46.90
2018-02-22T04:08:57.211Z,47.00
2018-02-22T04:11:26.279Z,47.00
2018-02-22T04:13:56.328Z,47.00
2018-02-22T04:16:24.598Z,47.30
2018-02-22T04:18:52.976Z,47.20
2018-02-22T04:21:21.219Z,47.30
2018-02-22T04:23:49.561Z,47.30
2018-02-22T04:26:17.806Z,47.80
2018-02-22T04:28:46.919Z,47.20
2018-02-22T04:31:16.018Z,47.10
2018-02-22T04:33:45.391Z,47.20
2018-02-22T04:36:15.130Z,47.00
2018-02-22T04:38:43.514Z,47.00
2018-02-22T04:41:11.767Z,47.00
2018-02-22T04:43:40.782Z,46.70
2018-02-22T04:46:09.138Z,46.70
2018-02-22T04:48:38.173Z,46.80
2018-02-22T04:51:06.604Z,46.80
2018-02-22T04:53:34.866Z,46.60
2018-02-22T04:56:03.212Z,46.40
2018-02-22T04:58:31.537Z,46.70
2018-02-22T05:01:00.728Z,47.00
2018-02-22T05:03:28.989Z,46.90
2018-02-22T05:05:57.216Z,47.20
2018-02-22T05:08:25.470Z,47.40
2018-02-22T05:10:54.549Z,47.40
2018-02-22T05:13:22.958Z,47.40
2018-02-22T05:15:51.322Z,47.60
2018-02-22T05:18:20.424Z,47.70
2018-02-22T05:20:49.433Z,47.70
2018-02-22T05:23:17.712Z,47.60
2018-02-22T05:25:46.152Z,47.70
2018-02-22T05:28:14.381Z,47.50
2018-02-22T05:30:42.705Z,47.60
2018-02-22T05:33:10.941Z,47.60
2018-02-22T05:35:39.192Z,47.70
2018-02-22T05:38:07.687Z,47.80
2018-02-22T05:40:35.974Z,47.80
2018-02-22T05:43:04.225Z,47.70
2018-02-22T05:45:32.469Z,47.50
2018-02-22T05:48:00.751Z,47.80
2018-02-22T05:50:28.999Z,47.70
2018-02-22T05:52:57.373Z,47.60
2018-02-22T05:55:25.637Z,47.50
2018-02-22T05:57:54.677Z,47.50
2018-02-22T06:00:23.876Z,47.60
2018-02-22T06:02:52.115Z,47.60
2018-02-22T06:05:20.379Z,47.70
2018-02-22T06:07:48.679Z,47.70
2018-02-22T06:10:16.931Z,47.60
2018-02-22T06:12:45.190Z,47.50
2018-02-22T06:15:13.432Z,47.50
2018-02-22T06:17:42.585Z,47.50
2018-02-22T06:20:12.581Z,47.30
2018-02-22T06:22:40.809Z,47.20
2018-02-22T06:25:11.092Z,47.00
2018-02-22T06:27:39.458Z,47.00
2018-02-22T06:30:07.726Z,47.10
2018-02-22T06:32:36.001Z,47.20
2018-02-22T06:35:04.253Z,47.40
2018-02-22T06:37:33.463Z,47.60
2018-02-22T06:40:01.738Z,47.80
2018-02-22T06:42:29.990Z,47.70
2018-02-22T06:44:59.847Z,47.40
2018-02-22T06:47:28.133Z,47.60
2018-02-22T06:49:56.456Z,47.60
2018-02-22T06:52:25.486Z,47.70
2018-02-22T06:54:53.806Z,47.50
2018-02-22T06:57:22.077Z,47.40
2018-02-22T06:59:50.406Z,47.20
2018-02-22T07:02:18.678Z,47.20
2018-02-22T07:04:47.700Z,47.10
2018-02-22T07:07:16.065Z,47.00
2018-02-22T07:09:44.313Z,46.90
2018-02-22T07:12:13.351Z,47.00
2018-02-22T07:14:41.597Z,46.80
2018-02-22T07:17:10.167Z,47.00
2018-02-22T07:19:40.038Z,46.80
2018-02-22T07:22:08.393Z,46.80
2018-02-22T07:24:38.270Z,47.00
2018-02-22T07:27:07.377Z,46.60
2018-02-22T07:29:35.643Z,46.80
2018-02-22T07:32:04.677Z,46.80
2018-02-22T07:34:33.018Z,46.80
2018-02-22T07:37:02.151Z,46.90
2018-02-22T07:39:30.429Z,46.80
2018-02-22T07:41:58.755Z,47.00
2018-02-22T07:44:27.844Z,46.90
2018-02-22T07:46:56.080Z,47.00
2018-02-22T07:49:24.330Z,47.00
2018-02-22T07:51:53.701Z,47.00
2018-02-22T07:54:21.965Z,46.80
2018-02-22T07:56:50.377Z,47.00
2018-02-22T07:59:18.640Z,46.90
2018-02-22T08:01:47.829Z,47.20
2018-02-22T08:04:16.053Z,47.00
2018-02-22T08:06:44.294Z,46.90
2018-02-22T08:09:12.593Z,46.80
2018-02-22T08:11:40.945Z,46.90
2018-02-22T08:14:09.183Z,47.20
2018-02-22T08:16:37.450Z,47.10
2018-02-22T08:19:05.709Z,47.10
2018-02-22T08:21:35.585Z,47.10
2018-02-22T08:24:04.722Z,47.10
2018-02-22T08:26:32.964Z,47.10
2018-02-22T08:29:02.045Z,47.10
2018-02-22T08:31:32.216Z,47.20
2018-02-22T08:34:00.461Z,47.00
2018-02-22T08:36:29.551Z,46.80
2018-02-22T08:38:58.633Z,46.80
2018-02-22T08:41:27.810Z,47.10
2018-02-22T08:43:56.037Z,46.80
2018-02-22T08:46:24.292Z,47.00
2018-02-22T08:48:52.622Z,46.90
2018-02-22T08:51:20.977Z,47.00
2018-02-22T08:53:49.606Z,46.80
2018-02-22T08:56:17.895Z,46.60
2018-02-22T08:58:46.093Z,46.80
2018-02-22T09:01:14.390Z,46.80
2018-02-22T09:03:42.605Z,46.50
2018-02-22T09:06:10.934Z,46.60
2018-02-22T09:08:40.140Z,46.70
2018-02-22T09:11:08.496Z,46.30
2018-02-22T09:13:36.742Z,46.40
2018-02-22T09:16:05.121Z,46.40
2018-02-22T09:18:33.400Z,46.30
2018-02-22T09:21:01.609Z,46.60
2018-02-22T09:23:29.883Z,46.60
2018-02-22T09:25:58.238Z,46.40
2018-02-22T09:28:26.465Z,46.30
2018-02-22T09:30:56.197Z,46.40
2018-02-22T09:33:24.697Z,46.40
2018-02-22T09:35:53.023Z,46.40
2018-02-22T09:38:21.365Z,46.40
2018-02-22T09:40:50.609Z,46.40
2018-02-22T09:43:18.950Z,46.30
2018-02-22T09:45:47.214Z,46.30
2018-02-22T09:48:16.348Z,46.10
2018-02-22T09:50:44.684Z,46.10
2018-02-22T09:53:13.291Z,46.00
2018-02-22T09:55:41.585Z,45.90
2018-02-22T09:58:09.827Z,45.60
2018-02-22T10:00:38.114Z,45.40
2018-02-22T10:03:06.410Z,45.60
2018-02-22T10:05:34.774Z,45.50
2018-02-22T10:08:03.017Z,45.60
2018-02-22T10:10:31.312Z,45.60
2018-02-22T10:12:59.775Z,45.40
2018-02-22T10:15:27.991Z,45.40
2018-02-22T10:17:56.276Z,45.90
2018-02-22T10:20:24.527Z,45.50
2018-02-22T10:22:53.564Z,45.30
2018-02-22T10:25:21.916Z,45.10
2018-02-22T10:27:50.185Z,45.30
2018-02-22T10:30:18.531Z,45.40
2018-02-22T10:32:46.779Z,45.20
2018-02-22T10:35:15.021Z,45.20
2018-02-22T10:37:43.520Z,45.10
2018-02-22T10:40:11.811Z,44.90
2018-02-22T10:42:40.161Z,44.70
2018-02-22T10:45:08.507Z,44.80
2018-02-22T10:47:37.554Z,44.60
2018-02-22T10:50:05.838Z,44.50
2018-02-22T10:52:34.057Z,44.40
2018-02-22T10:55:02.459Z,44.00
2018-02-22T10:57:30.698Z,44.10
2018-02-22T10:59:58.971Z,43.90
2018-02-22T11:02:33.718Z,44.00
2018-02-22T11:05:02.074Z,43.10
2018-02-22T11:07:30.344Z,42.80
2018-02-22T11:09:58.628Z,42.90
2018-02-22T11:12:27.632Z,42.90
2018-02-22T11:14:55.933Z,42.70
2018-02-22T11:17:24.284Z,42.60
2018-02-22T11:19:53.393Z,42.10
2018-02-22T11:22:21.691Z,41.80
2018-02-22T11:24:51.050Z,42.00
2018-02-22T11:27:19.324Z,41.70
2018-02-22T11:29:47.544Z,41.80
2018-02-22T11:32:15.980Z,41.70
2018-02-22T11:34:44.280Z,41.50
2018-02-22T11:37:12.659Z,41.40
2018-02-22T11:39:41.681Z,41.00
2018-02-22T11:42:10.079Z,41.10
2018-02-22T11:44:38.417Z,41.00
2018-02-22T11:47:06.661Z,40.80
2018-02-22T11:49:34.888Z,40.60
2018-02-22T11:52:03.154Z,40.70
2018-02-22T11:54:31.409Z,40.70
2018-02-22T11:57:00.625Z,40.30
2018-02-22T11:59:29.045Z,40.40
2018-02-22T12:01:57.277Z,39.90
2018-02-22T12:04:25.754Z,39.90
2018-02-22T12:06:54.020Z,40.00
2018-02-22T12:09:23.861Z,40.10
2018-02-22T12:11:52.296Z,40.10
2018-02-22T12:14:20.512Z,39.80
2018-02-22T12:16:48.780Z,39.70
2018-02-22T12:19:17.030Z,39.80
2018-02-22T12:21:46.078Z,39.80
2018-02-22T12:24:15.379Z,39.80
2018-02-22T12:26:46.871Z,39.90
2018-02-22T12:29:19.240Z,39.70
2018-02-22T12:33:35.311Z,39.30
2018-02-22T12:36:03.715Z,39.50
2018-02-22T12:38:31.958Z,39.30
2018-02-22T12:41:00.328Z,39.40
2018-02-22T12:43:28.797Z,39.20
2018-02-22T12:45:57.763Z,39.20
2018-02-22T12:48:26.199Z,38.90
2018-02-22T12:50:56.108Z,38.70
2018-02-22T12:53:24.393Z,38.40
2018-02-22T12:55:52.756Z,38.80
2018-02-22T12:58:21.218Z,38.60
2018-02-22T13:00:49.670Z,38.60
2018-02-22T13:03:18.886Z,38.70
2018-02-22T13:05:47.263Z,38.30
2018-02-22T13:08:15.584Z,38.40
2018-02-22T13:10:44.031Z,38.40
2018-02-22T13:13:12.298Z,38.10
2018-02-22T13:15:40.550Z,38.20
2018-02-22T13:18:08.841Z,38.40
2018-02-22T13:20:37.204Z,38.40
2018-02-22T13:23:05.533Z,38.30
2018-02-22T13:25:33.757Z,38.50
2018-02-22T13:28:02.864Z,37.70
2018-02-22T13:30:31.169Z,37.70
2018-02-22T13:33:11.582Z,35.50
2018-02-22T13:35:40.488Z,36.20
2018-02-22T13:38:20.482Z,36.30
2018-02-22T13:40:49.647Z,36.20
2018-02-22T13:43:18.728Z,36.70
2018-02-22T13:45:47.018Z,36.60
2018-02-22T13:48:15.260Z,36.70
2018-02-22T13:50:55.512Z,36.80
2018-02-22T13:53:23.737Z,36.90
2018-02-22T13:55:52.002Z,37.20
2018-02-22T13:58:20.265Z,37.10
2018-02-22T14:01:01.363Z,36.60
2018-02-22T14:03:30.733Z,36.80
2018-02-22T14:05:59.939Z,36.70
2018-02-22T14:08:39.882Z,36.90
2018-02-22T14:11:08.187Z,36.80
2018-02-22T14:13:36.424Z,37.00
2018-02-22T14:16:04.684Z,37.40
2018-02-22T14:18:32.968Z,37.20
2018-02-22T14:21:01.374Z,36.90
2018-02-22T14:23:30.481Z,37.20
2018-02-22T14:25:59.617Z,37.00
2018-02-22T14:28:27.849Z,37.10
2018-02-22T14:30:56.866Z,36.70
2018-02-22T14:33:25.175Z,37.00
2018-02-22T14:35:53.457Z,37.00
2018-02-22T14:38:23.221Z,36.90
2018-02-22T14:40:52.279Z,37.10
2018-02-22T14:43:21.750Z,37.00
2018-02-22T14:45:54.004Z,36.70
2018-02-22T14:48:22.252Z,36.80
2018-02-22T14:50:50.511Z,37.20
2018-02-22T14:53:18.801Z,37.60
2018-02-22T14:55:47.888Z,37.30
2018-02-22T14:58:17.033Z,37.30
2018-02-22T15:00:51.085Z,37.40
2018-02-22T15:03:20.203Z,37.40
2018-02-22T15:05:49.343Z,37.40
2018-02-22T15:08:17.713Z,37.50
2018-02-22T15:10:47.210Z,37.70
2018-02-22T15:13:15.505Z,37.60
2018-02-22T15:15:43.765Z,37.50
2018-02-22T15:18:12.365Z,37.60
2018-02-22T15:20:40.740Z,37.50
2018-02-22T15:23:13.058Z,37.90
2018-02-22T15:25:41.284Z,37.80
2018-02-22T15:28:09.757Z,37.90
2018-02-22T15:30:38.647Z,37.60
2018-02-22T15:33:06.918Z,37.80
2018-02-22T15:35:35.257Z,38.40
2018-02-22T15:38:04.364Z,38.60
2018-02-22T15:40:33.441Z,37.80
2018-02-22T15:43:02.785Z,37.40
2018-02-22T15:45:31.379Z,38.00
2018-02-22T15:47:59.642Z,38.20
2018-02-22T15:50:27.962Z,38.40
2018-02-22T15:53:00.404Z,38.50
2018-02-22T15:55:28.714Z,39.40
2018-02-22T15:57:56.948Z,38.60
2018-02-22T16:00:25.314Z,38.40
2018-02-22T16:02:53.684Z,38.70
2018-02-22T16:05:23.922Z,38.80
2018-02-22T16:07:52.557Z,38.90
2018-02-22T16:10:22.414Z,38.60
2018-02-22T16:12:50.912Z,38.70
2018-02-22T16:15:19.198Z,38.80
2018-02-22T16:17:47.447Z,39.00
2018-02-22T16:20:15.715Z,39.00
2018-02-22T16:22:44.784Z,39.10
2018-02-22T16:25:14.446Z,39.10
2018-02-22T16:27:42.974Z,39.10
2018-02-22T16:30:12.080Z,39.10
2018-02-22T16:32:40.389Z,39.30
2018-02-22T16:35:09.133Z,39.10
2018-02-22T16:37:41.209Z,39.10
2018-02-22T16:40:11.010Z,39.00
2018-02-22T16:42:40.242Z,39.10
2018-02-22T16:45:08.525Z,38.90
2018-02-22T16:47:37.620Z,38.90
2018-02-22T16:50:06.071Z,38.90
2018-02-22T16:52:38.844Z,39.00
2018-02-22T16:55:07.224Z,39.10
2018-02-22T16:57:37.058Z,39.40
2018-02-22T17:00:06.133Z,39.30
2018-02-22T17:02:35.382Z,40.00
2018-02-22T17:05:08.250Z,39.30
2018-02-22T17:07:37.168Z,39.30
2018-02-22T17:10:05.503Z,39.90
2018-02-22T17:12:34.546Z,39.40
2018-02-22T17:15:03.068Z,39.40
2018-02-22T17:17:43.424Z,39.50
2018-02-22T17:20:12.549Z,39.60
2018-02-22T17:22:40.856Z,39.70
2018-02-22T17:25:09.141Z,39.70
2018-02-22T17:27:42.978Z,39.80
2018-02-22T17:30:16.899Z,39.80
2018-02-22T17:32:45.234Z,39.70
2018-02-22T17:38:40.433Z,40.00
2018-02-22T17:41:11.590Z,39.90
2018-02-22T17:43:39.900Z,40.10
2018-02-22T17:46:08.241Z,40.20
2018-02-22T17:48:37.210Z,40.00
2018-02-22T17:51:05.609Z,40.20
2018-02-22T17:53:33.845Z,40.10
2018-02-22T17:56:04.307Z,40.20
2018-02-22T17:58:32.921Z,40.30
2018-02-22T18:01:01.270Z,40.20
2018-02-22T18:03:30.131Z,40.30
2018-02-22T18:05:58.463Z,40.40
2018-02-22T18:08:26.755Z,40.60
2018-02-22T18:10:55.285Z,40.50
2018-02-22T18:14:28.541Z,40.50
2018-02-22T18:16:57.756Z,40.70
2018-02-22T18:19:26.103Z,40.70
2018-02-22T18:21:54.341Z,40.60
2018-02-22T18:24:23.247Z,40.60
2018-02-22T18:26:56.160Z,40.70
2018-02-22T18:29:24.612Z,40.70
2018-02-22T18:31:54.595Z,40.90
2018-02-22T18:34:23.702Z,40.70
2018-02-22T18:36:53.083Z,40.90
2018-02-22T18:39:27.536Z,41.00
2018-02-22T18:41:56.030Z,40.90
2018-02-22T18:44:30.335Z,41.00
2018-02-22T18:46:58.711Z,41.20
2018-02-22T18:49:26.954Z,40.90
2018-02-22T18:51:56.205Z,41.30
2018-02-22T18:54:24.466Z,41.10
2018-02-22T18:56:57.275Z,41.20
2018-02-22T18:59:25.569Z,41.20
2018-02-22T19:01:53.859Z,41.00
2018-02-22T19:04:22.169Z,41.10
2018-02-22T19:06:51.282Z,41.20
2018-02-22T19:09:20.715Z,41.40
2018-02-22T19:11:49.110Z,41.30
2018-02-22T19:14:18.555Z,41.90
2018-02-22T19:16:46.943Z,41.30
2018-02-22T19:19:15.207Z,41.50
2018-02-22T19:21:43.631Z,41.50
2018-02-22T19:24:11.936Z,41.60
2018-02-22T19:26:41.046Z,41.70
2018-02-22T19:29:09.479Z,41.70
2018-02-22T19:31:37.822Z,41.70
2018-02-22T19:34:06.217Z,41.70
2018-02-22T19:36:34.577Z,41.70
2018-02-22T19:39:03.615Z,41.60
2018-02-22T19:41:32.010Z,41.70
2018-02-22T19:44:00.430Z,41.90
2018-02-22T19:46:29.740Z,42.00
2018-02-22T19:49:02.179Z,42.00
2018-02-22T19:51:31.104Z,41.90
2018-02-22T19:53:59.438Z,42.00
2018-02-22T19:56:27.770Z,42.00
2018-02-22T19:58:56.037Z,42.70
2018-02-22T20:01:24.380Z,41.80
2018-02-22T20:03:53.601Z,41.70
2018-02-22T20:06:22.920Z,41.90
2018-02-22T20:08:55.260Z,42.10
2018-02-22T20:11:23.519Z,42.10
2018-02-22T20:13:52.212Z,41.90
2018-02-22T20:16:20.601Z,42.10
2018-02-22T20:18:49.854Z,42.30
2018-02-22T20:21:18.896Z,42.30
2018-02-22T20:23:47.368Z,42.10
2018-02-22T20:26:16.039Z,42.10
2018-02-22T20:28:44.475Z,42.20
2018-02-22T20:31:12.808Z,42.10
2018-02-22T20:33:41.049Z,42.10
2018-02-22T20:36:10.154Z,42.20
2018-02-22T20:38:38.446Z,42.10
2018-02-22T20:41:06.713Z,42.30
2018-02-22T20:43:35.818Z,42.40
2018-02-22T20:46:04.247Z,42.40
2018-02-22T20:48:32.502Z,42.30
2018-02-22T20:51:02.805Z,42.50
2018-02-22T20:53:35.493Z,42.30
2018-02-22T20:56:04.001Z,42.40
2018-02-22T20:58:33.075Z,43.30
2018-02-22T21:01:01.475Z,42.60
2018-02-22T21:03:29.751Z,42.70
2018-02-22T21:05:59.680Z,42.60
2018-02-22T21:08:30.024Z,42.70
2018-02-22T21:10:58.332Z,42.70
2018-02-22T21:13:26.652Z,42.70
2018-02-22T21:15:54.937Z,42.50
2018-02-22T21:18:23.553Z,42.60
2018-02-22T21:20:52.297Z,42.60
2018-02-22T21:23:20.662Z,42.70
2018-02-22T21:25:48.927Z,42.90
2018-02-22T21:28:18.030Z,43.00
2018-02-22T21:30:46.306Z,42.80
2018-02-22T21:33:14.553Z,43.00
2018-02-22T21:35:42.889Z,42.70
2018-02-22T21:38:11.147Z,42.90
2018-02-22T21:40:39.401Z,42.70
2018-02-22T21:43:08.940Z,42.90
2018-02-22T21:45:38.234Z,42.90
2018-02-22T21:48:08.566Z,43.00
2018-02-22T21:50:37.693Z,43.00
2018-02-22T21:53:07.537Z,43.10
2018-02-22T21:55:36.684Z,42.90
2018-02-22T21:58:04.968Z,42.90
2018-02-22T22:00:33.215Z,43.00
2018-02-22T22:03:01.482Z,43.20
2018-02-22T22:05:29.729Z,43.00
2018-02-22T22:07:58.810Z,43.10
2018-02-22T22:10:27.068Z,43.00
2018-02-22T22:12:55.391Z,43.30
2018-02-22T22:15:23.670Z,43.20
2018-02-22T22:17:51.926Z,43.30
2018-02-22T22:20:21.086Z,42.90
2018-02-22T22:22:50.870Z,42.80
2018-02-22T22:25:19.285Z,42.80
2018-02-22T22:27:49.141Z,42.70
2018-02-22T22:30:18.186Z,43.00
2018-02-22T22:32:46.521Z,43.00
2018-02-22T22:35:14.819Z,42.80
2018-02-22T22:37:44.085Z,43.10
2018-02-22T22:40:13.103Z,43.00
2018-02-22T22:42:41.394Z,43.20
2018-02-22T22:45:09.736Z,43.10
2018-02-22T22:47:37.998Z,43.20
2018-02-22T22:50:07.000Z,43.60
2018-02-22T22:52:35.261Z,43.30
2018-02-22T22:55:03.508Z,43.20
2018-02-22T22:57:33.529Z,43.50
2018-02-22T23:00:01.906Z,43.50
2018-02-22T23:02:30.219Z,43.50
2018-02-22T23:04:58.493Z,43.40
2018-02-22T23:07:27.738Z,43.30
2018-02-22T23:09:56.012Z,43.20
2018-02-22T23:12:24.349Z,43.20
2018-02-22T23:14:52.754Z,43.40
2018-02-22T23:17:21.857Z,43.40
2018-02-22T23:19:50.094Z,43.50
2018-02-22T23:22:19.193Z,43.70
2018-02-22T23:24:48.302Z,43.70
2018-02-22T23:27:16.553Z,43.60
2018-02-22T23:29:45.690Z,43.30
2018-02-22T23:32:13.921Z,43.50
2018-02-22T23:34:43.046Z,43.40
2018-02-22T23:37:12.143Z,43.10
2018-02-22T23:39:41.022Z,43.20
2018-02-22T23:42:22.854Z,43.70
2018-02-22T23:44:51.142Z,43.70
2018-02-22T23:47:19.394Z,43.80
2018-02-22T23:49:47.633Z,44.00
2018-02-22T23:52:16.796Z,44.60
2018-02-22T23:54:45.042Z,44.50
2018-02-22T23:57:13.312Z,44.70
2018-02-22T23:59:41.562Z,44.60
